createdAt,value
2022-12-14T00:01:48.988Z,54487.31
2022-12-14T00:04:19.690Z,54479.34
2022-12-14T00:06:48.434Z,54503.22
2022-12-14T00:09:17.166Z,54523.09
2022-12-14T00:11:46.041Z,54501.22
2022-12-14T00:14:14.857Z,54527.09
2022-12-14T00:16:43.492Z,54517.16
2022-12-14T00:19:12.527Z,54501.22
2022-12-14T00:21:42.711Z,54501.22
2022-12-14T00:24:12.396Z,54533.06
2022-12-14T00:26:41.083Z,54477.38
2022-12-14T00:29:09.734Z,54503.22
2022-12-14T00:31:38.181Z,54531.06
2022-12-14T00:34:07.275Z,54513.16
2022-12-14T00:36:37.792Z,54517.16
2022-12-14T00:39:08.262Z,54517.16
2022-12-14T00:41:37.418Z,54517.16
2022-12-14T00:44:06.443Z,54503.22
2022-12-14T00:46:35.150Z,54507.19
2022-12-14T00:49:04.081Z,54495.28
2022-12-14T00:51:33.096Z,54487.31
2022-12-14T00:54:01.884Z,54517.16
2022-12-14T00:56:31.867Z,54505.22
2022-12-14T00:59:00.735Z,54513.16
2022-12-14T01:01:30.708Z,54487.31
2022-12-14T01:04:17.312Z,54517.16
2022-12-14T01:06:46.489Z,54491.28
2022-12-14T01:09:15.698Z,54499.25
2022-12-14T01:11:46.039Z,54483.34
2022-12-14T01:14:17.238Z,54493.28
2022-12-14T01:16:46.635Z,54503.22
2022-12-14T01:19:16.206Z,54519.13
2022-12-14T01:21:45.165Z,54485.31
2022-12-14T01:24:14.155Z,54485.31
2022-12-14T01:26:42.871Z,54493.28
2022-12-14T01:29:14.143Z,54497.25
2022-12-14T01:31:43.595Z,54505.22
2022-12-14T01:34:17.610Z,54489.31
2022-12-14T01:36:46.703Z,54527.09
2022-12-14T01:39:17.467Z,54485.31
2022-12-14T01:41:49.712Z,54487.31
2022-12-14T01:44:51.897Z,54499.25
2022-12-14T01:47:27.817Z,54521.13
2022-12-14T01:50:03.051Z,54519.13
2022-12-14T01:52:38.505Z,54517.16
2022-12-14T01:55:12.311Z,54499.25
2022-12-14T01:57:44.555Z,54505.22
2022-12-14T02:00:14.610Z,54461.47
2022-12-14T02:02:50.419Z,54517.16
2022-12-14T02:05:22.038Z,54507.19
2022-12-14T02:08:48.037Z,54489.31
2022-12-14T02:11:22.024Z,54511.19
2022-12-14T02:13:51.069Z,54525.09
2022-12-14T02:16:20.269Z,54537.03
2022-12-14T02:18:51.103Z,54517.16
2022-12-14T02:21:25.354Z,54558.91
2022-12-14T02:24:35.744Z,54525.09
2022-12-14T02:27:33.301Z,54525.09
2022-12-14T02:30:42.267Z,54525.09
2022-12-14T02:33:27.539Z,54541.00
2022-12-14T02:36:04.024Z,54525.09
2022-12-14T02:38:49.446Z,54548.97
2022-12-14T02:41:26.853Z,54554.94
2022-12-14T02:44:04.696Z,54543.00
2022-12-14T02:46:50.039Z,54513.16
2022-12-14T02:49:36.123Z,54525.09
2022-12-14T02:52:12.618Z,54550.94
2022-12-14T02:54:52.156Z,54556.91
2022-12-14T02:57:24.586Z,54539.03
2022-12-14T02:59:57.177Z,54509.19
2022-12-14T03:02:29.805Z,54525.09
2022-12-14T03:05:00.299Z,54519.13
2022-12-14T03:07:38.093Z,54541.00
2022-12-14T03:10:18.062Z,54533.06
2022-12-14T03:12:52.147Z,54525.09
2022-12-14T03:15:23.105Z,54535.03
2022-12-14T03:17:57.197Z,54537.03
2022-12-14T03:20:28.211Z,54509.19
2022-12-14T03:23:00.605Z,54521.13
2022-12-14T03:25:36.604Z,54529.06
2022-12-14T03:28:10.604Z,54513.16
2022-12-14T03:31:00.322Z,54544.97
2022-12-14T03:33:33.914Z,54539.03
2022-12-14T03:36:12.255Z,54529.06
2022-12-14T03:38:43.540Z,54560.91
2022-12-14T03:41:21.667Z,54552.94
2022-12-14T03:44:11.680Z,54556.91
2022-12-14T03:46:51.572Z,54544.97
2022-12-14T03:49:27.426Z,54572.81
2022-12-14T03:52:01.540Z,54541.00
2022-12-14T03:54:41.802Z,54576.81
2022-12-14T03:57:18.360Z,54568.84
2022-12-14T03:59:56.000Z,54580.78
2022-12-14T04:02:35.079Z,54541.00
2022-12-14T04:05:17.089Z,54564.88
2022-12-14T04:07:53.734Z,54564.88
2022-12-14T04:10:43.514Z,54560.91
2022-12-14T04:13:34.305Z,54584.75
2022-12-14T04:16:25.588Z,54564.88
2022-12-14T04:19:00.984Z,54592.72
2022-12-14T04:21:38.720Z,54588.75
2022-12-14T04:24:31.896Z,54608.63
2022-12-14T04:27:06.769Z,54584.75
2022-12-14T04:29:55.802Z,54620.56
2022-12-14T04:32:30.517Z,54602.66
2022-12-14T04:35:05.548Z,54552.94
2022-12-14T04:37:38.450Z,54564.88
2022-12-14T04:40:11.005Z,54564.88
2022-12-14T04:42:46.496Z,54568.84
2022-12-14T04:45:20.722Z,54543.00
2022-12-14T04:47:57.865Z,54554.94
2022-12-14T04:50:30.550Z,54568.84
2022-12-14T04:53:05.154Z,54560.91
2022-12-14T04:55:39.750Z,54550.94
2022-12-14T04:58:14.218Z,54570.84
2022-12-14T05:00:59.746Z,54578.78
2022-12-14T05:03:32.350Z,54513.16
2022-12-14T05:06:11.537Z,54568.84
2022-12-14T05:09:11.220Z,54541.00
2022-12-14T05:11:54.606Z,54527.09
2022-12-14T05:14:34.121Z,54554.94
2022-12-14T05:17:08.889Z,54550.94
2022-12-14T05:19:39.167Z,54543.00
2022-12-14T05:22:09.179Z,54539.03
2022-12-14T05:24:39.346Z,54576.81
2022-12-14T05:27:08.344Z,54568.84
2022-12-14T05:29:43.686Z,54525.09
2022-12-14T05:32:13.699Z,54544.97
2022-12-14T05:34:42.483Z,54576.81
2022-12-14T05:37:17.784Z,54562.88
2022-12-14T05:40:17.916Z,54554.94
2022-12-14T05:42:49.831Z,54564.88
2022-12-14T05:45:22.772Z,54556.91
2022-12-14T05:47:52.509Z,54546.97
2022-12-14T05:50:21.274Z,54550.94
2022-12-14T05:52:53.071Z,54558.91
2022-12-14T05:55:23.456Z,54537.03
2022-12-14T05:57:52.078Z,54537.03
2022-12-14T06:00:22.000Z,54544.97
2022-12-14T06:02:50.843Z,54580.78
2022-12-14T06:05:19.632Z,54556.91
2022-12-14T06:07:48.251Z,54537.03
2022-12-14T06:10:18.948Z,54539.03
2022-12-14T06:12:49.607Z,54543.00
2022-12-14T06:15:18.538Z,54544.97
2022-12-14T06:17:48.042Z,54548.97
2022-12-14T06:20:17.210Z,54556.91
2022-12-14T06:22:47.855Z,54610.63
2022-12-14T06:25:17.201Z,54519.13
2022-12-14T06:27:46.108Z,54543.00
2022-12-14T06:30:17.339Z,54523.09
2022-12-14T06:32:46.334Z,54537.03
2022-12-14T06:35:15.533Z,54511.19
2022-12-14T06:37:57.273Z,54556.91
2022-12-14T06:40:26.141Z,54523.09
2022-12-14T06:42:55.105Z,54521.13
2022-12-14T06:45:25.636Z,54517.16
2022-12-14T06:47:54.180Z,54525.09
2022-12-14T06:50:23.230Z,54539.03
2022-12-14T06:52:51.726Z,54519.13
2022-12-14T06:55:20.702Z,54574.81
2022-12-14T06:57:52.101Z,54550.94
2022-12-14T07:00:21.747Z,54560.91
2022-12-14T07:02:52.600Z,54529.06
2022-12-14T07:05:21.870Z,54562.88
2022-12-14T07:07:50.384Z,54537.03
2022-12-14T07:10:19.412Z,54533.06
2022-12-14T07:12:48.164Z,54548.97
2022-12-14T07:15:17.603Z,54576.81
2022-12-14T07:17:46.327Z,54550.94
2022-12-14T07:20:16.968Z,54548.97
2022-12-14T07:22:49.325Z,54548.97
2022-12-14T07:25:18.591Z,54537.03
2022-12-14T07:27:47.678Z,54552.94
2022-12-14T07:30:16.550Z,54544.97
2022-12-14T07:32:46.135Z,54544.97
2022-12-14T07:35:17.057Z,54548.97
2022-12-14T07:37:49.267Z,54544.97
2022-12-14T07:40:18.691Z,54568.84
2022-12-14T07:42:50.636Z,54572.81
2022-12-14T07:45:21.034Z,54558.91
2022-12-14T07:47:51.329Z,54572.81
2022-12-14T07:50:21.649Z,54562.88
2022-12-14T07:52:50.559Z,54558.91
2022-12-14T07:55:21.781Z,54608.63
2022-12-14T07:57:50.500Z,54550.94
2022-12-14T08:00:19.794Z,54564.88
2022-12-14T08:02:48.460Z,54568.84
2022-12-14T08:05:17.264Z,54560.91
2022-12-14T08:07:47.545Z,54572.81
2022-12-14T08:10:16.189Z,54546.97
2022-12-14T08:12:44.806Z,54586.75
2022-12-14T08:15:13.984Z,54600.66
2022-12-14T08:17:42.705Z,54521.13
2022-12-14T08:20:21.304Z,54572.81
2022-12-14T08:22:54.053Z,54588.75
2022-12-14T08:25:22.721Z,54568.84
2022-12-14T08:27:54.611Z,54537.03
2022-12-14T08:30:25.944Z,54562.88
2022-12-14T08:32:56.828Z,54544.97
2022-12-14T08:35:25.524Z,54552.94
2022-12-14T08:37:55.771Z,54552.94
2022-12-14T08:40:24.879Z,54554.94
2022-12-14T08:42:54.573Z,54529.06
2022-12-14T08:45:23.363Z,54541.00
2022-12-14T08:47:52.097Z,54515.16
2022-12-14T08:50:23.066Z,54556.91
2022-12-14T08:52:56.377Z,54550.94
2022-12-14T08:55:29.132Z,54552.94
2022-12-14T08:58:02.552Z,54562.88
2022-12-14T09:00:32.118Z,54568.84
2022-12-14T09:03:00.866Z,54546.97
2022-12-14T09:05:29.359Z,54566.84
2022-12-14T09:08:00.604Z,54525.09
2022-12-14T09:10:29.374Z,54550.94
2022-12-14T09:12:59.919Z,54570.84
2022-12-14T09:15:29.541Z,54548.97
2022-12-14T09:18:01.080Z,54568.84
2022-12-14T09:20:30.299Z,54552.94
2022-12-14T09:23:00.949Z,54525.09
2022-12-14T09:25:30.386Z,54546.97
2022-12-14T09:27:59.834Z,54513.16
2022-12-14T09:30:29.090Z,54556.91
2022-12-14T09:32:58.085Z,54533.06
2022-12-14T09:35:27.626Z,54537.03
2022-12-14T09:37:58.171Z,54548.97
2022-12-14T09:40:31.799Z,54515.16
2022-12-14T09:43:06.043Z,54515.16
2022-12-14T09:45:42.415Z,54541.00
2022-12-14T09:48:20.427Z,54517.16
2022-12-14T09:50:51.037Z,54523.09
2022-12-14T09:53:22.010Z,54560.91
2022-12-14T09:55:55.303Z,54554.94
2022-12-14T09:58:30.402Z,54507.19
2022-12-14T10:05:03.124Z,54527.09
2022-12-14T10:07:38.482Z,54548.97
2022-12-14T10:10:19.066Z,54521.13
2022-12-14T10:12:59.401Z,54527.09
2022-12-14T10:15:33.638Z,54521.13
2022-12-14T10:18:41.271Z,54539.03
2022-12-14T10:21:14.591Z,54521.13
2022-12-14T10:23:52.725Z,54517.16
2022-12-14T10:26:24.689Z,54505.22
2022-12-14T10:29:01.783Z,54519.13
2022-12-14T10:31:37.846Z,54529.06
2022-12-14T10:34:19.485Z,54568.84
2022-12-14T10:37:12.275Z,54497.25
2022-12-14T10:39:52.991Z,54491.28
2022-12-14T10:42:31.568Z,54552.94
2022-12-14T10:48:23.769Z,54501.22
2022-12-14T10:50:59.339Z,54527.09
2022-12-14T10:53:40.417Z,54521.13
2022-12-14T10:56:16.712Z,54523.09
2022-12-14T10:58:45.626Z,54507.19
2022-12-14T11:01:17.197Z,54544.97
2022-12-14T11:03:50.932Z,54533.06
2022-12-14T11:06:22.138Z,54541.00
2022-12-14T11:08:51.884Z,54517.16
2022-12-14T11:11:24.740Z,54519.13
2022-12-14T11:13:55.759Z,54529.06
2022-12-14T11:16:37.353Z,54525.09
2022-12-14T11:19:16.327Z,54527.09
2022-12-14T11:21:45.618Z,54552.94
2022-12-14T11:24:23.975Z,54517.16
2022-12-14T11:26:59.153Z,54525.09
2022-12-14T11:29:32.943Z,54544.97
2022-12-14T11:32:04.905Z,54513.16
2022-12-14T11:34:39.599Z,54519.13
2022-12-14T11:37:16.749Z,54539.03
2022-12-14T11:39:52.090Z,54487.31
2022-12-14T11:42:22.635Z,54513.16
2022-12-14T11:44:52.951Z,54493.28
2022-12-14T11:47:26.791Z,54473.41
2022-12-14T11:49:57.169Z,54495.28
2022-12-14T11:52:42.378Z,54507.19
2022-12-14T11:55:17.347Z,54501.22
2022-12-14T11:57:54.567Z,54505.22
2022-12-14T12:01:07.461Z,54477.38
2022-12-14T12:03:43.500Z,54521.13
2022-12-14T12:07:04.462Z,54497.25
2022-12-14T12:12:54.428Z,54465.44
2022-12-14T12:15:28.237Z,54449.53
2022-12-14T12:18:03.141Z,54453.50
2022-12-14T12:20:37.413Z,54477.38
2022-12-14T12:23:14.669Z,54449.53
2022-12-14T12:25:46.230Z,54467.44
2022-12-14T12:28:21.205Z,54457.47
2022-12-14T12:30:55.561Z,54435.59
2022-12-14T12:33:33.485Z,54447.53
2022-12-14T12:36:09.222Z,54477.38
2022-12-14T12:38:57.421Z,54465.44
2022-12-14T12:41:33.758Z,54457.47
2022-12-14T12:44:23.327Z,54437.59
2022-12-14T12:47:38.218Z,54443.56
2022-12-14T12:50:32.473Z,54447.53
2022-12-14T12:53:07.296Z,54405.78
2022-12-14T12:55:43.495Z,54437.59
2022-12-14T12:58:20.369Z,54463.44
2022-12-14T13:00:51.735Z,54429.66
2022-12-14T13:03:26.381Z,54427.66
2022-12-14T13:05:58.588Z,54377.94
2022-12-14T13:08:35.620Z,54360.03
2022-12-14T13:11:29.540Z,54348.13
2022-12-14T13:14:03.723Z,54354.06
2022-12-14T13:16:36.055Z,54302.38
2022-12-14T13:19:48.706Z,54286.47
2022-12-14T13:22:10.905Z,54292.44
2022-12-14T13:24:47.492Z,54302.38
2022-12-14T13:27:40.760Z,54250.69
2022-12-14T13:30:22.311Z,54276.53
2022-12-14T13:33:04.665Z,54234.75
2022-12-14T13:35:48.174Z,54258.63
2022-12-14T13:38:47.787Z,54242.72
2022-12-14T13:41:29.144Z,54264.59
2022-12-14T13:44:33.544Z,54252.66
2022-12-14T13:47:14.179Z,54232.78
2022-12-14T13:49:43.450Z,54246.69
2022-12-14T13:52:30.696Z,54232.78
2022-12-14T13:55:00.754Z,54254.66
2022-12-14T13:57:30.980Z,54242.72
2022-12-14T14:00:00.604Z,54222.84
2022-12-14T14:02:41.642Z,54234.75
2022-12-14T14:05:45.740Z,54232.78
2022-12-14T14:08:39.317Z,54222.84
2022-12-14T14:11:57.321Z,54191.03
2022-12-14T14:14:47.190Z,54222.84
2022-12-14T14:17:25.135Z,54218.84
2022-12-14T14:19:56.342Z,54234.75
2022-12-14T14:22:27.389Z,54246.69
2022-12-14T14:25:02.073Z,54234.75
2022-12-14T14:27:38.922Z,54206.94
2022-12-14T14:30:36.762Z,54238.75
2022-12-14T14:33:44.746Z,54222.84
2022-12-14T14:36:26.265Z,54228.81
2022-12-14T14:38:56.881Z,54250.69
2022-12-14T14:41:29.466Z,54224.81
2022-12-14T14:44:01.519Z,54210.91
2022-12-14T14:46:39.688Z,54242.72
2022-12-14T14:49:23.474Z,54242.72
2022-12-14T14:51:52.353Z,54254.66
2022-12-14T14:57:36.610Z,54274.53
2022-12-14T15:00:08.003Z,54284.47
2022-12-14T15:02:42.913Z,54294.41
2022-12-14T15:08:19.066Z,54310.34
2022-12-14T15:10:49.107Z,54320.28
2022-12-14T15:13:22.237Z,54328.22
2022-12-14T15:15:56.795Z,54352.09
2022-12-14T15:18:30.509Z,54362.03
2022-12-14T15:21:03.448Z,54356.06
2022-12-14T15:23:38.182Z,54358.06
2022-12-14T15:26:16.991Z,54389.88
2022-12-14T15:28:50.200Z,54385.91
2022-12-14T15:31:30.235Z,54383.91
2022-12-14T15:34:01.620Z,54401.81
2022-12-14T15:36:33.236Z,54393.84
2022-12-14T15:39:02.136Z,54381.91
2022-12-14T15:41:34.398Z,54397.81
2022-12-14T15:44:03.601Z,54423.69
2022-12-14T15:46:34.495Z,54433.63
2022-12-14T15:49:08.345Z,54427.66
2022-12-14T15:51:39.685Z,54413.72
2022-12-14T15:54:16.509Z,54443.56
2022-12-14T15:56:47.932Z,54481.34
2022-12-14T15:59:19.167Z,54453.50
2022-12-14T16:01:55.160Z,54465.44
2022-12-14T16:04:29.369Z,54435.59
2022-12-14T16:07:08.676Z,54477.38
2022-12-14T16:09:43.499Z,54467.44
2022-12-14T16:12:18.939Z,54465.44
2022-12-14T16:14:54.460Z,54495.28
2022-12-14T16:17:27.987Z,54505.22
2022-12-14T16:20:01.250Z,54485.31
2022-12-14T16:22:32.145Z,54491.28
2022-12-14T16:25:20.514Z,54465.44
2022-12-14T16:27:52.309Z,54465.44
2022-12-14T16:30:30.846Z,54501.22
2022-12-14T16:33:11.494Z,54497.25
2022-12-14T16:35:41.491Z,54548.97
2022-12-14T16:38:14.356Z,54493.28
2022-12-14T16:40:45.379Z,54511.19
2022-12-14T16:43:31.113Z,54535.03
2022-12-14T16:46:21.257Z,54517.16
2022-12-14T16:49:23.902Z,54521.13
2022-12-14T16:52:09.624Z,54519.13
2022-12-14T16:54:40.171Z,54544.97
2022-12-14T16:57:20.012Z,54525.09
2022-12-14T16:59:56.573Z,54521.13
2022-12-14T17:02:31.897Z,54523.09
2022-12-14T17:05:02.835Z,54560.91
2022-12-14T17:07:36.394Z,54529.06
2022-12-14T17:10:05.843Z,54533.06
2022-12-14T17:12:34.767Z,54554.94
2022-12-14T17:15:03.436Z,54509.19
2022-12-14T17:17:34.978Z,54544.97
2022-12-14T17:20:14.283Z,54543.00
2022-12-14T17:22:49.450Z,54515.16
2022-12-14T17:25:19.389Z,54556.91
2022-12-14T17:27:49.433Z,54548.97
2022-12-14T17:30:21.893Z,54548.97
2022-12-14T17:32:51.854Z,54572.81
2022-12-14T17:35:23.024Z,54552.94
2022-12-14T17:37:53.864Z,54572.81
2022-12-14T17:40:22.985Z,54560.91
2022-12-14T17:42:55.149Z,54586.75
2022-12-14T17:45:26.519Z,54560.91
2022-12-14T17:47:55.738Z,54552.94
2022-12-14T17:50:25.088Z,54592.72
2022-12-14T17:53:00.728Z,54529.06
2022-12-14T17:55:31.141Z,54529.06
2022-12-14T17:57:59.931Z,54590.72
2022-12-14T18:00:48.843Z,54576.81
2022-12-14T18:03:19.267Z,54596.69
2022-12-14T18:05:50.487Z,54574.81
2022-12-14T18:08:22.279Z,54592.72
2022-12-14T18:10:54.086Z,54608.63
2022-12-14T18:13:22.680Z,54608.63
2022-12-14T18:15:53.176Z,54572.81
2022-12-14T18:18:25.776Z,54616.56
2022-12-14T18:21:01.579Z,54592.72
2022-12-14T18:23:33.403Z,54652.38
2022-12-14T18:26:05.391Z,54592.72
2022-12-14T18:28:34.508Z,54588.75
2022-12-14T18:31:06.598Z,54584.75
2022-12-14T18:33:36.182Z,54596.69
2022-12-14T18:36:04.986Z,54576.81
2022-12-14T18:38:35.333Z,54592.72
2022-12-14T18:41:04.373Z,54596.69
2022-12-14T18:43:35.652Z,54608.63
2022-12-14T18:46:06.492Z,54612.59
2022-12-14T18:48:35.821Z,54588.75
2022-12-14T18:51:06.295Z,54596.69
2022-12-14T18:53:36.528Z,54596.69
2022-12-14T18:56:09.609Z,54626.53
2022-12-14T18:58:41.991Z,54614.59
2022-12-14T19:01:16.410Z,54630.50
2022-12-14T19:03:45.399Z,54592.72
2022-12-14T19:09:06.201Z,54620.56
2022-12-14T19:11:39.179Z,54600.66
2022-12-14T19:14:07.831Z,54592.72
2022-12-14T19:16:36.717Z,54622.53
2022-12-14T19:19:05.793Z,54632.50
2022-12-14T19:21:34.491Z,54614.59
2022-12-14T19:24:03.152Z,54642.44
2022-12-14T19:26:33.270Z,54624.53
2022-12-14T19:29:02.050Z,54656.34
2022-12-14T19:31:30.943Z,54650.38
2022-12-14T19:33:59.827Z,54636.47
2022-12-14T19:36:28.459Z,54630.50
2022-12-14T19:38:57.203Z,54612.59
2022-12-14T19:41:26.818Z,54614.59
2022-12-14T19:43:58.597Z,54602.66
2022-12-14T19:46:27.177Z,54652.38
2022-12-14T19:48:57.617Z,54640.44
2022-12-14T19:51:26.439Z,54612.59
2022-12-14T19:53:56.524Z,54642.44
2022-12-14T19:56:25.306Z,54652.38
2022-12-14T19:59:00.940Z,54636.47
2022-12-14T20:01:35.252Z,54616.56
2022-12-14T20:04:05.203Z,54632.50
2022-12-14T20:06:34.767Z,54648.41
2022-12-14T20:09:05.928Z,54648.41
2022-12-14T20:11:35.142Z,54618.56
2022-12-14T20:14:03.980Z,54642.44
2022-12-14T20:16:34.772Z,54646.41
2022-12-14T20:19:04.495Z,54650.38
2022-12-14T20:21:34.332Z,54652.38
2022-12-14T20:24:03.255Z,54648.41
2022-12-14T20:26:32.162Z,54644.41
2022-12-14T20:29:05.102Z,54644.41
2022-12-14T20:31:36.030Z,54652.38
2022-12-14T20:34:06.703Z,54618.56
2022-12-14T20:36:35.369Z,54640.44
2022-12-14T20:39:05.563Z,54632.50
2022-12-14T20:41:35.338Z,54648.41
2022-12-14T20:44:04.122Z,54664.31
2022-12-14T20:46:36.093Z,54664.31
2022-12-14T20:49:07.177Z,54640.44
2022-12-14T20:51:37.987Z,54646.41
2022-12-14T20:54:08.488Z,54648.41
2022-12-14T20:56:37.750Z,54662.31
2022-12-14T20:59:07.427Z,54648.41
2022-12-14T21:01:39.046Z,54668.28
2022-12-14T21:04:08.977Z,54638.44
2022-12-14T21:06:40.043Z,54648.41
2022-12-14T21:09:12.831Z,54646.41
2022-12-14T21:12:01.619Z,54692.16
2022-12-14T21:14:32.775Z,54656.34
2022-12-14T21:17:04.289Z,54662.31
2022-12-14T21:19:36.100Z,54636.47
2022-12-14T21:22:07.416Z,54686.19
2022-12-14T21:27:30.400Z,54668.28
2022-12-14T21:30:00.234Z,54662.31
2022-12-14T21:32:31.027Z,54668.28
2022-12-14T21:35:01.830Z,54628.50
2022-12-14T21:37:30.662Z,54654.38
2022-12-14T21:40:00.308Z,54670.28
2022-12-14T21:42:28.867Z,54644.41
2022-12-14T21:44:58.053Z,54672.25
2022-12-14T21:47:29.447Z,54664.31
2022-12-14T21:49:59.809Z,54688.16
2022-12-14T21:52:29.817Z,54636.47
2022-12-14T21:55:04.540Z,54668.28
2022-12-14T21:57:50.920Z,54688.16
2022-12-14T22:00:20.842Z,54664.31
2022-12-14T22:02:50.159Z,54694.13
2022-12-14T22:05:20.302Z,54648.41
2022-12-14T22:07:49.234Z,54664.31
2022-12-14T22:10:22.989Z,54662.31
2022-12-14T22:12:53.341Z,54680.22
2022-12-14T22:15:22.257Z,54648.41
2022-12-14T22:17:51.910Z,54668.28
2022-12-14T22:20:21.990Z,54680.22
2022-12-14T22:22:50.706Z,54668.28
2022-12-14T22:25:19.502Z,54700.09
2022-12-14T22:27:50.049Z,54664.31
2022-12-14T22:30:19.659Z,54672.25
2022-12-14T22:32:48.279Z,54680.22
2022-12-14T22:35:18.421Z,54702.09
2022-12-14T22:37:48.442Z,54664.31
2022-12-14T22:40:17.009Z,54696.13
2022-12-14T22:42:45.724Z,54684.19
2022-12-14T22:45:14.331Z,54640.44
2022-12-14T22:47:44.541Z,54688.16
2022-12-14T22:50:13.678Z,54682.22
2022-12-14T22:52:42.338Z,54694.13
2022-12-14T22:55:12.864Z,54646.41
2022-12-14T22:57:45.920Z,54648.41
2022-12-14T23:00:17.393Z,54696.13
2022-12-14T23:02:48.587Z,54690.16
2022-12-14T23:05:18.746Z,54648.41
2022-12-14T23:07:47.642Z,54664.31
2022-12-14T23:10:35.640Z,54672.25
2022-12-14T23:13:21.689Z,54648.41
2022-12-14T23:16:08.230Z,54664.31
2022-12-14T23:18:54.470Z,54640.44
2022-12-14T23:21:40.333Z,54664.31
2022-12-14T23:24:27.051Z,54700.09
2022-12-14T23:27:14.465Z,54672.25
2022-12-14T23:30:00.440Z,54666.28
2022-12-14T23:32:46.646Z,54674.25
2022-12-14T23:35:33.322Z,54640.44
2022-12-14T23:38:22.683Z,54720.00
2022-12-14T23:41:09.062Z,54670.28
2022-12-14T23:43:56.564Z,54666.28
2022-12-14T23:46:42.688Z,54666.28
2022-12-14T23:49:28.915Z,54672.25
2022-12-14T23:52:15.258Z,54700.09
2022-12-14T23:55:01.458Z,54664.31
2022-12-14T23:57:47.687Z,54656.34
